Groveland, IL (61535)

12:20 AM CST on February 12, 2016 (GMT -0600)
Glorianne Acres | | Change Station
CLOSE
Current Station
Personal Weather Station
Location: Pekin, IL
Elevation: 525 ft
Nearby Weather Stations

Elev 525 ft 40.53 °N, 89.63 °W | Updated 4 seconds ago

Overcast
Overcast
24.1 °F
Feels Like 24 °F
N
0.0
Wind Variable Wind from SSW
Gusts 1.0 mph

Today
High -- | Low -- °F
--% Chance of Precip.
Yesterday
High -- | Low -- °F
Precip. -- in
Pressure 30.29 in
Visibility 10.0 miles
Clouds Mostly Cloudy 5000 ft
Mostly Cloudy 7500 ft
Mostly Cloudy 9000 ft
Windchill 24 °F
Dew Point 15 °F
Humidity 69%
Rainfall 0.00 in
Snow Depth Not available.
6:56 AM 5:29 PM
Waxing Crescent, 18% visible
METAR KPIA 120554Z 23005KT 10SM BKN050 BKN075 BKN090 M05/M12 A3026 RMK AO2 SLP257 T10501122 11044 21056 410281128 56010
Pressure 30.29 in
Visibility 10.0 miles
Clouds Mostly Cloudy 5000 ft
Mostly Cloudy 7500 ft
Mostly Cloudy 9000 ft
Windchill 24 °F
Dew Point 15 °F
Humidity 69%
Rainfall 0.00 in
Snow Depth Not available.
6:56 AM 5:29 PM
Waxing Crescent, 18% visible
METAR KPIA 120554Z 23005KT 10SM BKN050 BKN075 BKN090 M05/M12 A3026 RMK AO2 SLP257 T10501122 11044 21056 410281128 56010

10-Day Weather Forecast

Almanac

Astronomy

Feb. 12, 2016 Rise Set
Actual Time
Civil Twilight
Nautical Twilight
Astronomical Twilight
Moon
Length of Visible Light
Length of Day
Tomorrow will be .
, % of the Moon is Illuminated

Today's Extremes

State Highs State Lows

Community

WunderPhotos

Upload Photos

1,892,273 photos uploaded!

WunderBlog® & News

Nearby

Air Quality

  Air Quality AQ Index Pollutant
Not available.

Snow Depth

Station Depth Elevation

Earthquake Activity

City Distance Mag. Time & Date
Minimum magnitude displayed is 2.5.

Coastal Water Temperatures

Place Temperature

Stations

Nearby Weather Stations

Station Location Temp. Windchill Dew Point Humidity Wind Precip. Elev Updated Type
                   

Watches & Warnings

There are currently no watches in effect.